Flight Track Log - Related Links

Times and Time Zones

All times are in EDT time to prevent confusion due to time zone crossing. See the N569TA flight status page for this flight to view local times or setup timezone preferences in your user account.

Time Position Orientation Groundspeed Altitude Reporting Facility
EDT Latitude Longitude Course Direction KTS MPH feet Rate Location/Type
Thu 03:40:16 PM 43.9394 -88.5794 257° West 238 274 6,300  Level Chicago Center
Thu 03:41:18 PM 43.9256 -88.6650 257° West 230 265 9,100 2,710 Climbing Chicago Center
Thu 03:42:20 PM 43.9147 -88.7514 260° West 229 264 11,900 2,565 Climbing Chicago Center
Thu 03:43:22 PM 43.9011 -88.8397 258° West 234 269 14,400 2,323 Climbing Chicago Center
Thu 03:44:24 PM 43.8842 -88.9503 258° West 251 289 16,700 1,839 Climbing Chicago Center
Thu 03:45:26 PM 43.8703 -89.0522 259° West 268 308 18,200 1,695 Climbing Chicago Center
Thu 03:46:35 PM 43.8506 -89.1764 258° West 283 326 20,400 1,708 Climbing Minneapolis Center
Thu 03:47:50 PM 43.8311 -89.3028 258° West 287 330 22,300 1,721 Climbing Minneapolis Center
Thu 03:48:51 PM 43.8150 -89.4153 259° West 295 339 24,300 1,756 Climbing Minneapolis Center
Thu 03:49:53 PM 43.7975 -89.5269 258° West 296 341 25,900 1,597 Climbing Minneapolis Center
Thu 03:50:55 PM 43.7778 -89.6611 259° West 305 351 27,600 1,561 Climbing Minneapolis Center
Thu 03:51:56 PM 43.7603 -89.7781 258° West 310 357 29,100 1,463 Climbing Minneapolis Center
Thu 03:52:58 PM 43.7428 -89.8936 258° West 307 353 30,600 1,403 Climbing Minneapolis Center
Thu 03:54:00 PM 43.7253 -90.0069 258° West 302 348 32,000 1,403 Climbing Minneapolis Center
Thu 03:55:02 PM 43.7086 -90.1172 258° West 294 338 33,500 1,452 Climbing Minneapolis Center
Thu 03:56:04 PM 43.6894 -90.2253 256° West 286 329 35,000 1,268 Climbing Minneapolis Center
Thu 03:57:05 PM 43.6733 -90.3267 258° West 276 318 36,100 1,122 Climbing Minneapolis Center
Thu 03:58:07 PM 43.6553 -90.4472 258° West 271 312 37,300 919 Climbing Minneapolis Center
Thu 03:59:09 PM 43.6383 -90.5478 257° West 271 312 38,000 614 Climbing Minneapolis Center
Thu 04:00:14 PM 43.6231 -90.6514 259° West 275 316 38,600 567 Climbing Minneapolis Center
Thu 04:01:16 PM 43.6061 -90.7569 258° West 282 325 39,200 629 Climbing Minneapolis Center
Thu 04:02:18 PM 43.5853 -90.8853 257° West 287 330 39,900 387 Climbing Minneapolis Center
Thu 04:03:20 PM 43.5686 -90.9922 258° West 289 333 40,000 48 Climbing Minneapolis Center
Thu 04:04:22 PM 43.5489 -91.1056 257° West 300 345 40,000  Level Minneapolis Center
Thu 04:05:24 PM 43.5303 -91.2231 258° West 312 359 40,000  Level Minneapolis Center
Thu 04:06:26 PM 43.5106 -91.3439 257° West 321 369 40,000  Level Minneapolis Center
Thu 04:07:27 PM 43.4858 -91.4917 257° West 330 380 40,000  Level Minneapolis Center
Thu 04:08:29 PM 43.4642 -91.6142 256° West 333 383 40,000  Level Minneapolis Center
Thu 04:09:31 PM 43.4433 -91.7389 257° West 336 387 40,000  Level Minneapolis Center
Thu 04:10:33 PM 43.4228 -91.8622 257° West 336 387 40,000  Level Minneapolis Center
Thu 04:11:35 PM 43.4000 -91.9867 256° West 337 388 40,000  Level Minneapolis Center
Thu 04:12:37 PM 43.3742 -92.1342 257° West 336 387 40,000  Level Minneapolis Center
Thu 04:13:39 PM 43.3525 -92.2569 256° West 336 387 40,000  Level Minneapolis Center
Thu 04:14:41 PM 43.3308 -92.3822 257° West 339 390 40,000  Level Minneapolis Center
Thu 04:15:43 PM 43.3083 -92.5072 256° West 340 391 40,000  Level Minneapolis Center
Thu 04:16:45 PM 43.2867 -92.6311 257° West 339 390 40,000  Level Minneapolis Center
Thu 04:17:48 PM 43.2589 -92.7817 256° West 343 395 40,000  Level Minneapolis Center
Thu 04:18:50 PM 43.2367 -92.9072 256° West 343 395 40,000  Level Minneapolis Center
Thu 04:19:52 PM 43.2147 -93.0308 256° West 340 391 40,000  Level Minneapolis Center
Thu 04:20:54 PM 43.1906 -93.1569 255° West 342 394 40,000  Level Minneapolis Center
Thu 04:21:56 PM 43.1636 -93.3064 256° West 340 391 40,000  Level Minneapolis Center
Thu 04:22:58 PM 43.1400 -93.4317 256° West 343 395 40,000  Level Minneapolis Center
Thu 04:24:00 PM 43.1156 -93.5575 255° West 345 397 40,000  Level Minneapolis Center
Thu 04:25:02 PM 43.0908 -93.6847 255° West 347 399 40,000  Level Minneapolis Center
Thu 04:26:04 PM 43.0672 -93.8119 256° West 347 399 40,000  Level Minneapolis Center
Thu 04:27:06 PM 43.0383 -93.9639 255° West 347 399 40,000  Level Minneapolis Center
Thu 04:28:08 PM 43.0133 -94.0919 255° West 350 403 40,000  Level Minneapolis Center
Thu 04:29:10 PM 42.9889 -94.2192 255° West 351 404 40,000  Level Minneapolis Center
Thu 04:30:12 PM 42.9653 -94.3469 256° West 350 403 40,000  Level Minneapolis Center
Thu 04:31:14 PM 42.9389 -94.4736 254° West 350 403 40,000  Level Minneapolis Center
Thu 04:32:16 PM 42.9072 -94.6269 254° West 350 403 40,000  Level Minneapolis Center
Thu 04:33:18 PM 42.8831 -94.7519 255° West 345 397 40,000  Level Minneapolis Center
Thu 04:34:20 PM 42.8575 -94.8778 255° West 344 396 40,000  Level Minneapolis Center
Thu 04:35:23 PM 42.8314 -95.0039 254° West 346 398 40,000  Level Minneapolis Center
Thu 04:36:25 PM 42.8056 -95.1292 254° West 344 396 40,000  Level Minneapolis Center
Thu 04:37:27 PM 42.7792 -95.2567 254° West 346 398 40,000  Level Minneapolis Center
Thu 04:38:29 PM 42.7489 -95.4094 255° West 349 402 40,000  Level Minneapolis Center
Thu 04:39:31 PM 42.7233 -95.5333 254° West 350 403 40,000  Level Minneapolis Center
Thu 04:41:00 PM 42.6816 -95.7264 254° West  Level FlightAware Approximate
Thu 04:44:41 PM 42.5839 -96.1883 253° West 348 400 40,000  Level Minneapolis Center
Thu 04:46:00 PM 42.5469 -96.3594 254° West  Level FlightAware Approximate
Thu 04:48:00 PM 42.4832 -96.6351 254° West  Level FlightAware Approximate
Thu 04:49:00 PM 42.4548 -96.7647 253° West  Level FlightAware Approximate
Thu 04:53:00 PM 42.3460 -97.2651 254° West  Level FlightAware Approximate
Thu 04:54:00 PM 42.3167 -97.3940 253° West  Level FlightAware Approximate
Thu 04:55:00 PM 42.2873 -97.5228 253° West  Level FlightAware Approximate
Thu 04:56:00 PM 42.2577 -97.6515 253° West  Level FlightAware Approximate
Thu 04:57:00 PM 42.2280 -97.7801 253° West  Level FlightAware Approximate
Thu 04:57:03 PM 42.2342 -97.7494 252° West 363 418 40,000  Level Denver Center
Thu 04:58:00 PM 42.1981 -97.9085 253° West  Level FlightAware Approximate
Thu 04:58:05 PM 42.2039 -97.8797 253° West 367 422 40,000  Level Denver Center
Thu 04:59:00 PM 42.1681 -98.0368 253° West  Level FlightAware Approximate
Thu 04:59:07 PM 42.1739 -98.0108 253° West 367 422 40,000  Level Denver Center
Thu 05:00:00 PM 42.1380 -98.1650 252° West  Level FlightAware Approximate
Thu 05:00:09 PM 42.1419 -98.1425 252° West 369 425 40,000  Level Denver Center
Thu 05:01:00 PM 42.1077 -98.2931 252° West  Level FlightAware Approximate
Thu 05:01:11 PM 42.1111 -98.2758 253° West 372 428 40,000  Level Denver Center
Thu 05:02:00 PM 42.0773 -98.4210 252° West  Level FlightAware Approximate
Thu 05:02:13 PM 42.0736 -98.4358 253° West 374 430 40,000  Level Denver Center
Thu 05:03:15 PM 42.0422 -98.5675 252° West 373 429 40,000  Level Denver Center
Thu 05:04:17 PM 42.0097 -98.6992 252° West 372 428 40,000  Level Denver Center
Thu 05:05:19 PM 41.9775 -98.8331 252° West 376 433 40,000  Level Denver Center
Thu 05:06:21 PM 41.9458 -98.9628 252° West 368 423 40,000  Level Denver Center
Thu 05:07:23 PM 41.9139 -99.0950 252° West 372 428 40,000  Level Denver Center
Thu 05:08:25 PM 41.8756 -99.2511 252° West 368 423 40,000  Level Denver Center
Thu 05:09:27 PM 41.8428 -99.3808 251° West 368 423 40,000  Level Denver Center
Thu 05:10:29 PM 41.8106 -99.5128 252° West 371 427 40,000  Level Denver Center
Thu 05:11:31 PM 41.7781 -99.6417 251° West 368 423 40,000  Level Denver Center
Thu 05:12:33 PM 41.7406 -99.7914 251° West 371 427 40,000  Level Denver Center
Thu 05:13:35 PM 41.7089 -99.9164 251° West 371 427 40,000  Level Denver Center
Thu 05:14:37 PM 41.6714 -100.0606 251° West 369 425 40,000  Level Denver Center
Thu 05:15:39 PM 41.6400 -100.1844 251° West 370 426 40,000  Level Denver Center
Thu 05:16:41 PM 41.6031 -100.3297 251° West 370 426 40,000  Level Denver Center
Thu 05:17:43 PM 41.5703 -100.4536 251° West 369 425 40,000  Level Denver Center
Thu 05:18:45 PM 41.5331 -100.5983 251° West 370 426 40,000  Level Denver Center
Thu 05:19:47 PM 41.5006 -100.7219 251° West 371 427 40,000  Level Denver Center
Thu 05:21:01 PM 41.4622 -100.8661 251° West 371 427 40,000  Level Denver Center
Thu 05:22:04 PM 41.4239 -101.0083 250° West 368 423 40,000  Level Denver Center
Thu 05:23:06 PM 41.3850 -101.1528 250° West 372 428 40,000  Level Denver Center
Thu 05:24:08 PM 41.3531 -101.2753 251° West 369 425 40,000  Level Denver Center
Thu 05:25:10 PM 41.3150 -101.4186 251° West 369 425 40,000  Level Denver Center
Thu 05:26:12 PM 41.2808 -101.5414 250° West 371 427 40,000  Level Denver Center
Thu 05:27:14 PM 41.2419 -101.6844 250° West 369 425 40,000  Level Denver Center
Thu 05:28:16 PM 41.2083 -101.8089 250° West 374 430 40,000  Level Denver Center
Thu 05:29:18 PM 41.1689 -101.9536 250° West 375 432 40,000  Level Denver Center
Thu 05:30:20 PM 41.1331 -102.0769 249° West 375 432 40,000  Level Denver Center
Thu 05:31:22 PM 41.0925 -102.2217 250° West 376 433 40,000  Level Denver Center
Thu 05:32:24 PM 41.0586 -102.3453 250° West 375 432 40,000  Level Denver Center
Thu 05:33:26 PM 41.0169 -102.4889 249° West 375 432 40,000  Level Denver Center
Thu 05:34:28 PM 40.9833 -102.6119 250° West 371 427 40,000  Level Denver Center
Thu 05:35:31 PM 40.9431 -102.7550 250° West 371 427 40,000  Level Denver Center
Thu 05:36:33 PM 40.9064 -102.8786 249° West 376 433 40,000  Level Denver Center
Thu 05:37:35 PM 40.8653 -103.0244 250° West 376 433 40,000  Level Denver Center
Thu 05:38:37 PM 40.8275 -103.1536 249° West 375 432 40,000  Level Denver Center
Thu 05:39:39 PM 40.7894 -103.2847 249° West 379 436 40,000  Level Denver Center
Thu 05:40:41 PM 40.7511 -103.4161 249° West 380 437 40,000  Level Denver Center
Thu 05:41:43 PM 40.7128 -103.5461 249° West 379 436 40,000  Level Denver Center
Thu 05:42:45 PM 40.6750 -103.6764 249° West 378 435 40,000  Level Denver Center
Thu 05:43:47 PM 40.6358 -103.8081 249° West 383 441 40,000  Level Denver Center
Thu 05:44:49 PM 40.5903 -103.9617 249° West 384 442 40,000  Level Denver Center
Thu 05:45:51 PM 40.5500 -104.0936 248° West 389 448 40,000  Level Denver Center
Thu 05:46:53 PM 40.5103 -104.2275 249° West 390 449 40,000  Level Denver Center
Thu 05:47:55 PM 40.4717 -104.3592 249° West 386 444 40,000  Level Denver Center
Thu 05:48:57 PM 40.4314 -104.4906 248° West 385 443 40,000  Level Denver Center
Thu 05:49:59 PM 40.3914 -104.6214 248° West 383 441 40,000  Level Denver Center
Thu 05:51:01 PM 40.3514 -104.7489 248° West 377 434 40,000  Level Denver Center
Thu 05:52:03 PM 40.3181 -104.8586 248° West 383 441 40,000  Level Denver Center
Thu 05:53:05 PM 40.2647 -105.0311 248° West 381 438 40,000  Level Denver Center
Thu 05:54:07 PM 40.2239 -105.1597 247° West 381 438 40,000  Level Denver Center
Thu 05:55:10 PM 40.1831 -105.2917 248° West 388 447 40,000  Level Denver Center
Thu 05:56:12 PM 40.1422 -105.4228 248° West 388 447 40,000  Level Denver Center
Thu 05:57:26 PM 40.0864 -105.5956 247° West 385 443 40,000  Level Denver Center
Thu 05:58:28 PM 40.0456 -105.7242 248° West 382 440 40,000  Level Denver Center
Thu 05:59:30 PM 40.0050 -105.8481 247° West 363 418 40,000  Level Denver Center
Thu 06:00:32 PM 39.9636 -105.9772 247° West 380 437 40,000  Level Denver Center
Thu 06:01:34 PM 39.9225 -106.1039 247° West 378 435 40,000  Level Denver Center
Thu 06:02:36 PM 39.8814 -106.2303 247° West 376 433 40,000  Level Denver Center
Thu 06:03:38 PM 39.8333 -106.3789 247° West 379 436 40,000  Level Denver Center
Thu 06:04:41 PM 39.7922 -106.5053 247° West 377 434 40,000  Level Denver Center
Thu 06:05:43 PM 39.7533 -106.6272 248° West 381 438 40,000  Level Denver Center
Thu 06:06:45 PM 39.7119 -106.7522 247° West 380 437 40,000  Level Denver Center
Thu 06:08:42 PM 39.6294 -107.0025 247° West 379 436 40,000  Level Salt Lake Center
Thu 06:09:43 PM 39.5819 -107.1425 246° West 380 437 40,000  Level Salt Lake Center
Thu 06:10:45 PM 39.5411 -107.2619 246° West 378 435 40,000  Level Salt Lake Center
Thu 06:11:47 PM 39.5011 -107.3814 247° West 377 434 40,000  Level Salt Lake Center
Thu 06:12:49 PM 39.4531 -107.5231 246° West 382 440 40,000  Level Salt Lake Center
Thu 06:13:51 PM 39.4119 -107.6461 247° West 386 444 40,000  Level Salt Lake Center
Thu 06:14:52 PM 39.3622 -107.7889 246° West 389 448 40,000  Level Salt Lake Center
Thu 06:15:54 PM 39.3206 -107.9122 246° West 390 449 40,000  Level Salt Lake Center
Thu 06:16:56 PM 39.2772 -108.0367 246° West 394 453 40,000  Level Salt Lake Center
Thu 06:17:58 PM 39.2275 -108.1800 246° West 391 450 40,000  Level Salt Lake Center
Thu 06:19:00 PM 39.1853 -108.3039 246° West 391 450 40,000  Level Salt Lake Center
Thu 06:20:11 PM 39.1272 -108.4661 245° Southwest 388 447 40,000  Level Denver Center
Thu 06:21:13 PM 39.0844 -108.5872 246° West 386 444 40,000  Level Denver Center
Thu 06:22:15 PM 39.0347 -108.7294 246° West 387 445 40,000  Level Denver Center
Thu 06:23:17 PM 38.9908 -108.8494 245° Southwest 387 445 40,000  Level Denver Center
Thu 06:24:20 PM 38.9403 -108.9914 245° Southwest 390 449 40,000  Level Denver Center
Thu 06:25:22 PM 38.8975 -109.1119 246° West 389 448 40,000  Level Denver Center
Thu 06:26:24 PM 38.8550 -109.2328 246° West 387 445 40,000  Level Denver Center
Thu 06:27:26 PM 38.8033 -109.3722 245° Southwest 386 444 40,000  Level Denver Center
Thu 06:28:28 PM 38.7611 -109.4897 245° Southwest 379 436 40,000  Level Denver Center
Thu 06:29:30 PM 38.7114 -109.6244 245° Southwest 371 427 40,000  Level Denver Center
Thu 06:30:32 PM 38.6686 -109.7436 245° Southwest 381 438 40,000  Level Denver Center
Thu 06:31:46 PM 38.6072 -109.8736 239° Southwest 384 442 40,000  Level Denver Center
Thu 06:32:48 PM 38.5353 -109.9972 233° Southwest 388 447 40,000  Level Denver Center
Thu 06:33:50 PM 38.4697 -110.1236 237° Southwest 383 441 40,000  Level Denver Center
Thu 06:34:27 PM 38.4317 -110.1964 236° Southwest 383 441 40,000  Level Salt Lake Center
Thu 06:35:29 PM 38.3711 -110.3006 233° Southwest 382 440 40,000  Level Salt Lake Center
Thu 06:35:54 PM 38.3417 -110.3536 235° Southwest 383 441 40,000  Level Denver Center
Thu 06:36:56 PM 38.2828 -110.4592 235° Southwest 382 440 40,000  Level Denver Center
Thu 06:37:59 PM 38.2150 -110.5833 235° Southwest 382 440 40,000  Level Denver Center
Thu 06:38:34 PM 38.1769 -110.6550 236° Southwest 382 440 40,000 -247 Level Salt Lake Center
Thu 06:39:36 PM 38.1186 -110.7608 235° Southwest 381 438 39,600 -809 Descending Salt Lake Center
Thu 06:40:03 PM 38.0869 -110.8139 233° Southwest 386 444 38,800 -1,685 Descending Denver Center
Thu 06:41:05 PM 38.0206 -110.9367 236° Southwest 395 455 37,100 -1,597 Descending Denver Center
Thu 06:42:07 PM 37.9600 -111.0442 234° Southwest 380 437 35,500 -1,452 Descending Denver Center
Thu 06:43:09 PM 37.8964 -111.1581 235° Southwest 393 452 34,100 -938 Descending Denver Center
Thu 06:43:43 PM 37.8564 -111.2286 234° Southwest 402 463 34,000 -63 Descending Salt Lake Center
Thu 06:44:44 PM 37.7900 -111.3447 234° Southwest 407 468 34,000 -488 Level Salt Lake Center
Thu 06:45:46 PM 37.7253 -111.4589 234° Southwest 402 463 33,000 -968 Descending Salt Lake Center
Thu 06:46:48 PM 37.6606 -111.5750 235° Southwest 403 464 32,000 -522 Descending Salt Lake Center
Thu 06:47:41 PM 37.5942 -111.6881 233° Southwest 400 460 32,000  Level Denver Center
Thu 06:48:43 PM 37.5300 -111.8022 235° Southwest 399 459 32,000  Level Denver Center
Thu 06:49:53 PM 37.4647 -111.9156 234° Southwest 398 458 32,000  Level Salt Lake Center
Thu 06:50:55 PM 37.3881 -112.0486 234° Southwest 392 451 32,000  Level Salt Lake Center
Thu 06:51:47 PM 37.3350 -112.1378 233° Southwest 390 449 32,000  Level Los Angeles Center
Thu 06:52:49 PM 37.2706 -112.2478 234° Southwest 389 448 32,000 -339 Level Los Angeles Center
Thu 06:53:51 PM 37.2061 -112.3589 234° Southwest 391 450 31,300 -919 Descending Los Angeles Center
Thu 06:54:53 PM 37.1522 -112.4500 233° Southwest 399 459 30,100 -1,632 Descending Los Angeles Center
Thu 06:55:56 PM 37.0583 -112.6108 234° Southwest 402 463 27,900 -1,824 Descending Los Angeles Center
Thu 06:56:58 PM 36.9942 -112.7189 233° Southwest 388 447 26,300 -1,790 Descending Los Angeles Center
Thu 06:58:00 PM 36.9311 -112.8269 234° Southwest 384 442 24,200 -2,177 Descending Los Angeles Center
Thu 06:59:02 PM 36.8681 -112.9317 233° Southwest 378 435 21,800 -2,081 Descending Los Angeles Center
Thu 07:00:04 PM 36.8083 -113.0342 234° Southwest 369 425 19,900 -1,500 Descending Los Angeles Center
Thu 07:01:06 PM 36.7503 -113.1311 233° Southwest 356 410 18,700 -968 Descending Los Angeles Center
Thu 07:02:08 PM 36.6997 -113.2347 239° Southwest 351 404 17,900 -581 Descending Los Angeles Center
Thu 07:03:10 PM 36.6603 -113.3692 250° West 343 395 17,500 -484 Descending Los Angeles Center
Thu 07:04:12 PM 36.6203 -113.4756 245° Southwest 341 392 16,900 -532 Descending Los Angeles Center
Thu 07:05:14 PM 36.5822 -113.5828 246° West 340 391 16,400 -480 Descending Los Angeles Center
Thu 07:06:17 PM 36.5444 -113.6897 246° West 339 390 15,900 -480 Descending Los Angeles Center
Thu 07:07:19 PM 36.5067 -113.7972 246° West 339 390 15,400 -484 Descending Los Angeles Center
Thu 07:08:21 PM 36.4692 -113.9047 247° West 336 387 14,900 -545 Descending Los Angeles Center
Thu 07:09:20 PM 36.4278 -114.0239 247° West 331 381 14,300 -588 Descending Los Angeles Center
Thu 07:10:03 PM 36.3983 -114.1036 245° Southwest 329 379 13,900 -554 Descending Los Angeles Center
Thu 07:10:25 PM 36.3861 -114.1344 244° Southwest 331 381 13,700 -689 Descending Los Angeles Center
Thu 07:11:04 PM 36.3639 -114.2011 248° West 325 374 13,200 -677 Descending Los Angeles Center
Thu 07:11:27 PM 36.3489 -114.2319 239° Southwest 315 362 13,000 -218 Descending Los Angeles Center
Thu 07:11:59 PM 36.3325 -114.2922 251° West 302 348 13,000  Level Los Angeles Center
Thu 07:12:29 PM 36.3147 -114.3264 237° Southwest 303 349 13,000 98 Level Los Angeles Center
Thu 07:13:00 PM 36.2781 -114.3778 228° Southwest 323 372 13,100 97 Climbing Los Angeles Center
Thu 07:13:31 PM 36.2489 -114.4042 216° Southwest 322 371 13,100 -429 Level Los Angeles Center
Thu 07:13:56 PM 36.2117 -114.4297 209° Southwest 322 371 12,700 -968 Descending Los Angeles Center
Thu 07:14:33 PM 36.1689 -114.4414 192° South 319 367 12,100 -545 Descending Los Angeles Center
Thu 07:15:02 PM 36.1261 -114.4722 210° Southwest 305 351 12,100 -581 Level Los Angeles Center
Thu 07:15:35 PM 36.0942 -114.4886 203° Southwest 303 349 11,500 -1,672 Descending Los Angeles Center
Thu 07:16:03 PM 36.0458 -114.5206 208° Southwest 310 357 10,400 -1,905 Descending Los Angeles Center
Thu 07:16:38 PM 36.0006 -114.5472 205° Southwest 311 358 9,500 -1,527 Descending Los Angeles Center
Thu 07:16:58 PM 35.9844 -114.5653 222° Southwest 306 352 9,000 -1,355 Descending Los Angeles Center
Thu 07:17:40 PM 35.9533 -114.6281 239° Southwest 301 346 8,100 -740 Descending Los Angeles Center
Thu 07:18:11 PM 35.9353 -114.6750 245° Southwest 296 341 8,100  Level Los Angeles Center
Thu 07:18:42 PM 35.9183 -114.7150 242° Southwest 289 333 8,100 -627 Level Los Angeles Center
Thu 07:19:18 PM 35.9000 -114.7692 247° West 254 292 7,400 -968 Descending Los Angeles Center
Thu 07:19:44 PM 35.8886 -114.7964 243° Southwest 276 318 7,100 -625 Descending Los Angeles Center
Thu 07:20:06 PM 35.8747 -114.8308 244° Southwest 251 289 6,900 -97 Descending Los Angeles Center
Thu 07:20:46 PM 35.8575 -114.8689 241° Southwest 260 299 7,000 295 Climbing Los Angeles Center
Thu 07:21:07 PM 35.8364 -114.9019 232° Southwest 254 292 7,200 1,452 Climbing Los Angeles Center
Thu 07:21:48 PM 35.8139 -114.9378 232° Southwest 253 291 8,500 1,377 Climbing Los Angeles Center
Thu 07:22:08 PM 35.7919 -114.9753 234° Southwest 267 307 8,600  Climbing Los Angeles Center
Thu 07:22:50 PM 35.7597 -115.0253 232° Southwest 258 297 8,500  Descending Los Angeles Center
Thu 07:23:09 PM 35.7475 -115.0481 237° Southwest 242 278 8,600 -97 Climbing Los Angeles Center
Thu 07:23:52 PM 35.7194 -115.0947 233° Southwest 257 296 8,400 -411 Descending Los Angeles Center
Thu 07:24:22 PM 35.7169 -115.1350 266° West 248 285 8,100 -387 Descending Los Angeles Center
Thu 07:24:54 PM 35.7136 -115.1761 264° West 249 287 8,000 -735 Descending Los Angeles Center
Thu 07:25:11 PM 35.7258 -115.1958 307° West 231 266 7,500 -1,667 Descending Los Angeles Center
Thu 07:26:06 PM 35.7794 -115.1942 North 209 241 6,000 -1,200 Descending Los Angeles Center
Thu 07:27:11 PM 35.8303 -115.1803 12° North 208 239 5,100 -694 Descending Los Angeles Center
Thu 07:28:07 PM 35.8747 -115.1656 15° North 169 194 4,600 -744 Descending Los Angeles Center
Thu 07:29:20 PM 35.9228 -115.1389 24° Northeast 156 180 3,500 -885 Descending Los Angeles Center
Thu 07:30:09 PM 35.9503 -115.1353 North 129 148 2,800 -857 Descending Los Angeles Center
Thu 07:32:00 PM 35.9667 -115.1333 11° North  Level FlightAware Approximate

Login

Don't have an account? Register now (free) for customized features, flight alerts, and more!